sensor_id;sensor_type;location;lat;lon;timestamp;pressure;altitude;pressure_sealevel;temperature;humidity
69351;BME280;57106;51.446;-2.606;2023-05-07T00:00:00;101338.03;;;13.44;81.32
69351;BME280;57106;51.446;-2.606;2023-05-07T00:02:25;101343.43;;;13.67;80.88
69351;BME280;57106;51.446;-2.606;2023-05-07T00:04:50;101342.50;;;13.47;80.98
69351;BME280;57106;51.446;-2.606;2023-05-07T00:07:16;101343.55;;;13.51;81.01
69351;BME280;57106;51.446;-2.606;2023-05-07T00:09:41;101347.25;;;13.58;81.06
69351;BME280;57106;51.446;-2.606;2023-05-07T00:12:07;101345.49;;;13.76;80.28
69351;BME280;57106;51.446;-2.606;2023-05-07T00:14:32;101345.46;;;13.70;80.13
69351;BME280;57106;51.446;-2.606;2023-05-07T00:16:58;101343.29;;;13.66;80.42
69351;BME280;57106;51.446;-2.606;2023-05-07T00:19:23;101343.49;;;13.56;81.19
69351;BME280;57106;51.446;-2.606;2023-05-07T00:21:48;101341.72;;;13.49;81.27
69351;BME280;57106;51.446;-2.606;2023-05-07T00:24:14;101341.40;;;13.52;80.97
69351;BME280;57106;51.446;-2.606;2023-05-07T00:26:39;101344.34;;;13.58;80.89
69351;BME280;57106;51.446;-2.606;2023-05-07T00:29:05;101342.85;;;13.50;80.91
69351;BME280;57106;51.446;-2.606;2023-05-07T00:31:30;101339.59;;;13.64;80.69
69351;BME280;57106;51.446;-2.606;2023-05-07T00:33:56;101335.22;;;13.49;80.40
69351;BME280;57106;51.446;-2.606;2023-05-07T00:36:21;101337.25;;;13.59;80.55
69351;BME280;57106;51.446;-2.606;2023-05-07T00:38:46;101334.80;;;13.46;81.15
69351;BME280;57106;51.446;-2.606;2023-05-07T00:41:12;101337.84;;;13.38;81.40
69351;BME280;57106;51.446;-2.606;2023-05-07T00:43:38;101339.29;;;13.44;81.32
69351;BME280;57106;51.446;-2.606;2023-05-07T00:46:07;101343.68;;;13.62;80.71
69351;BME280;57106;51.446;-2.606;2023-05-07T00:48:30;101345.78;;;13.66;80.33
69351;BME280;57106;51.446;-2.606;2023-05-07T00:50:55;101347.37;;;13.70;80.05
69351;BME280;57106;51.446;-2.606;2023-05-07T00:53:20;101344.88;;;13.57;80.45
69351;BME280;57106;51.446;-2.606;2023-05-07T00:55:46;101346.14;;;13.67;79.77
69351;BME280;57106;51.446;-2.606;2023-05-07T00:58:10;101351.66;;;13.83;79.24
69351;BME280;57106;51.446;-2.606;2023-05-07T01:00:36;101358.07;;;13.89;78.81
69351;BME280;57106;51.446;-2.606;2023-05-07T01:03:01;101360.11;;;13.76;79.40
69351;BME280;57106;51.446;-2.606;2023-05-07T02:32:40;101437.89;;;13.76;79.46
69351;BME280;57106;51.446;-2.606;2023-05-07T03:01:46;101461.09;;;13.85;78.10
69351;BME280;57106;51.446;-2.606;2023-05-07T03:13:54;101462.28;;;14.00;76.76
69351;BME280;57106;51.446;-2.606;2023-05-07T04:02:19;101492.43;;;13.89;76.96
69351;BME280;57106;51.446;-2.606;2023-05-07T04:14:27;101495.58;;;13.97;75.78
69351;BME280;57106;51.446;-2.606;2023-05-07T04:19:18;101492.92;;;14.05;74.69
69351;BME280;57106;51.446;-2.606;2023-05-07T04:26:34;101498.91;;;14.02;74.34
69351;BME280;57106;51.446;-2.606;2023-05-07T04:29:00;101501.39;;;13.90;74.55
69351;BME280;57106;51.446;-2.606;2023-05-07T04:31:25;101504.94;;;13.78;75.62
69351;BME280;57106;51.446;-2.606;2023-05-07T04:33:51;101510.23;;;13.86;75.22
69351;BME280;57106;51.446;-2.606;2023-05-07T04:36:16;101507.56;;;13.88;75.05
69351;BME280;57106;51.446;-2.606;2023-05-07T04:38:41;101503.87;;;13.76;75.76
69351;BME280;57106;51.446;-2.606;2023-05-07T04:45:58;101504.66;;;13.90;74.52
69351;BME280;57106;51.446;-2.606;2023-05-07T04:48:24;101509.01;;;13.68;75.63
69351;BME280;57106;51.446;-2.606;2023-05-07T04:50:49;101509.51;;;13.77;75.63
69351;BME280;57106;51.446;-2.606;2023-05-07T04:53:14;101513.28;;;13.69;75.68
69351;BME280;57106;51.446;-2.606;2023-05-07T04:55:39;101515.96;;;13.63;75.56
69351;BME280;57106;51.446;-2.606;2023-05-07T04:58:04;101522.24;;;13.59;75.75
69351;BME280;57106;51.446;-2.606;2023-05-07T05:00:30;101526.29;;;13.58;75.66
69351;BME280;57106;51.446;-2.606;2023-05-07T05:02:55;101530.53;;;13.52;75.63
69351;BME280;57106;51.446;-2.606;2023-05-07T05:05:20;101531.01;;;13.35;76.89
69351;BME280;57106;51.446;-2.606;2023-05-07T05:07:46;101530.01;;;13.19;77.27
69351;BME280;57106;51.446;-2.606;2023-05-07T05:10:11;101530.88;;;13.43;76.22
69351;BME280;57106;51.446;-2.606;2023-05-07T05:12:36;101534.02;;;13.15;76.83
69351;BME280;57106;51.446;-2.606;2023-05-07T05:15:02;101531.26;;;13.19;77.09
69351;BME280;57106;51.446;-2.606;2023-05-07T05:17:28;101533.72;;;13.32;76.75
69351;BME280;57106;51.446;-2.606;2023-05-07T05:19:53;101533.98;;;13.39;76.96
69351;BME280;57106;51.446;-2.606;2023-05-07T05:22:18;101540.58;;;13.61;75.53
69351;BME280;57106;51.446;-2.606;2023-05-07T05:24:43;101542.98;;;13.57;75.34
69351;BME280;57106;51.446;-2.606;2023-05-07T05:27:08;101546.39;;;13.60;75.87
69351;BME280;57106;51.446;-2.606;2023-05-07T05:29:34;101550.80;;;13.58;75.97
69351;BME280;57106;51.446;-2.606;2023-05-07T05:32:00;101546.77;;;13.55;75.66
69351;BME280;57106;51.446;-2.606;2023-05-07T05:34:25;101548.96;;;13.53;76.06
69351;BME280;57106;51.446;-2.606;2023-05-07T05:36:50;101552.23;;;13.50;76.00
69351;BME280;57106;51.446;-2.606;2023-05-07T05:39:17;101556.72;;;13.58;75.57
69351;BME280;57106;51.446;-2.606;2023-05-07T05:41:41;101561.79;;;13.69;75.15
69351;BME280;57106;51.446;-2.606;2023-05-07T05:44:07;101564.34;;;13.57;75.62
69351;BME280;57106;51.446;-2.606;2023-05-07T05:46:33;101564.02;;;13.50;76.06
69351;BME280;57106;51.446;-2.606;2023-05-07T05:48:58;101564.13;;;13.68;75.33
69351;BME280;57106;51.446;-2.606;2023-05-07T05:51:24;101562.38;;;13.74;75.01
69351;BME280;57106;51.446;-2.606;2023-05-07T05:53:49;101567.35;;;13.83;73.97
69351;BME280;57106;51.446;-2.606;2023-05-07T05:56:15;101570.92;;;13.70;75.05
69351;BME280;57106;51.446;-2.606;2023-05-07T05:58:40;101573.94;;;13.81;74.67
69351;BME280;57106;51.446;-2.606;2023-05-07T06:01:06;101577.31;;;13.90;74.32
69351;BME280;57106;51.446;-2.606;2023-05-07T06:03:31;101583.51;;;14.17;73.13
69351;BME280;57106;51.446;-2.606;2023-05-07T06:05:57;101583.87;;;14.16;73.32
69351;BME280;57106;51.446;-2.606;2023-05-07T06:08:22;101584.43;;;14.33;72.52
69351;BME280;57106;51.446;-2.606;2023-05-07T06:10:50;101588.51;;;14.23;72.93
69351;BME280;57106;51.446;-2.606;2023-05-07T06:13:13;101592.41;;;14.27;72.86
69351;BME280;57106;51.446;-2.606;2023-05-07T06:15:38;101597.36;;;14.45;72.45
69351;BME280;57106;51.446;-2.606;2023-05-07T06:18:03;101603.47;;;14.57;71.68
69351;BME280;57106;51.446;-2.606;2023-05-07T06:20:29;101599.82;;;14.61;70.97
69351;BME280;57106;51.446;-2.606;2023-05-07T06:22:54;101596.74;;;14.64;71.44
69351;BME280;57106;51.446;-2.606;2023-05-07T06:25:20;101594.44;;;14.71;70.57
69351;BME280;57106;51.446;-2.606;2023-05-07T06:27:45;101598.58;;;14.93;70.50
69351;BME280;57106;51.446;-2.606;2023-05-07T06:30:10;101607.70;;;15.05;69.99
69351;BME280;57106;51.446;-2.606;2023-05-07T06:32:36;101612.36;;;15.05;69.87
69351;BME280;57106;51.446;-2.606;2023-05-07T06:35:00;101614.64;;;15.03;69.77
69351;BME280;57106;51.446;-2.606;2023-05-07T06:37:26;101617.14;;;15.18;68.89
69351;BME280;57106;51.446;-2.606;2023-05-07T06:39:51;101618.08;;;14.88;69.86
69351;BME280;57106;51.446;-2.606;2023-05-07T06:42:17;101614.68;;;14.79;69.91
69351;BME280;57106;51.446;-2.606;2023-05-07T06:44:41;101614.04;;;14.94;69.46
69351;BME280;57106;51.446;-2.606;2023-05-07T06:47:07;101611.44;;;15.08;69.45
69351;BME280;57106;51.446;-2.606;2023-05-07T06:49:32;101613.84;;;15.14;69.23
69351;BME280;57106;51.446;-2.606;2023-05-07T06:51:57;101616.76;;;15.11;68.91
69351;BME280;57106;51.446;-2.606;2023-05-07T06:54:23;101619.02;;;15.15;68.85
69351;BME280;57106;51.446;-2.606;2023-05-07T06:56:48;101623.37;;;15.04;68.89
69351;BME280;57106;51.446;-2.606;2023-05-07T06:59:14;101628.47;;;15.16;68.29
69351;BME280;57106;51.446;-2.606;2023-05-07T07:01:39;101627.99;;;15.09;68.73
69351;BME280;57106;51.446;-2.606;2023-05-07T07:04:04;101634.01;;;15.04;69.42
69351;BME280;57106;51.446;-2.606;2023-05-07T07:06:29;101633.13;;;15.11;68.52
69351;BME280;57106;51.446;-2.606;2023-05-07T07:08:55;101634.35;;;15.02;68.63
69351;BME280;57106;51.446;-2.606;2023-05-07T07:11:24;101636.42;;;14.84;69.37
69351;BME280;57106;51.446;-2.606;2023-05-07T07:13:46;101639.48;;;14.97;69.07
69351;BME280;57106;51.446;-2.606;2023-05-07T07:16:11;101636.74;;;15.02;68.87
69351;BME280;57106;51.446;-2.606;2023-05-07T07:18:36;101639.28;;;15.15;68.58
69351;BME280;57106;51.446;-2.606;2023-05-07T07:21:07;101647.18;;;15.32;67.73
69351;BME280;57106;51.446;-2.606;2023-05-07T07:23:27;101650.42;;;15.26;66.96
69351;BME280;57106;51.446;-2.606;2023-05-07T07:25:53;101647.53;;;15.23;67.87
69351;BME280;57106;51.446;-2.606;2023-05-07T07:28:20;101649.56;;;15.43;67.66
69351;BME280;57106;51.446;-2.606;2023-05-07T07:30:44;101652.63;;;15.68;66.86
69351;BME280;57106;51.446;-2.606;2023-05-07T07:33:09;101652.64;;;15.67;66.73
69351;BME280;57106;51.446;-2.606;2023-05-07T07:35:35;101653.29;;;15.58;66.74
69351;BME280;57106;51.446;-2.606;2023-05-07T07:38:00;101653.84;;;15.43;66.86
69351;BME280;57106;51.446;-2.606;2023-05-07T07:40:25;101655.22;;;15.52;66.16
69351;BME280;57106;51.446;-2.606;2023-05-07T07:42:51;101657.15;;;15.48;66.59
69351;BME280;57106;51.446;-2.606;2023-05-07T07:45:17;101658.68;;;15.85;65.66
69351;BME280;57106;51.446;-2.606;2023-05-07T07:47:42;101659.53;;;15.80;65.27
69351;BME280;57106;51.446;-2.606;2023-05-07T07:50:08;101665.28;;;16.07;63.95
69351;BME280;57106;51.446;-2.606;2023-05-07T07:52:33;101672.66;;;16.17;64.15
69351;BME280;57106;51.446;-2.606;2023-05-07T08:02:14;101681.96;;;16.34;63.16
69351;BME280;57106;51.446;-2.606;2023-05-07T08:04:40;101689.87;;;16.41;63.09
69351;BME280;57106;51.446;-2.606;2023-05-07T08:07:05;101691.37;;;16.18;63.37
69351;BME280;57106;51.446;-2.606;2023-05-07T08:09:31;101694.03;;;16.33;63.25
69351;BME280;57106;51.446;-2.606;2023-05-07T08:11:56;101694.84;;;16.23;63.14
69351;BME280;57106;51.446;-2.606;2023-05-07T08:14:21;101696.06;;;16.38;61.83
69351;BME280;57106;51.446;-2.606;2023-05-07T08:16:47;101699.14;;;16.48;61.64
69351;BME280;57106;51.446;-2.606;2023-05-07T08:19:12;101703.44;;;16.44;61.10
69351;BME280;57106;51.446;-2.606;2023-05-07T08:21:39;101707.45;;;16.38;61.65
69351;BME280;57106;51.446;-2.606;2023-05-07T08:24:04;101706.75;;;16.55;61.21
69351;BME280;57106;51.446;-2.606;2023-05-07T08:26:29;101697.55;;;16.18;62.39
69351;BME280;57106;51.446;-2.606;2023-05-07T08:28:54;101699.65;;;16.36;61.85
69351;BME280;57106;51.446;-2.606;2023-05-07T08:31:19;101699.24;;;16.35;61.23
69351;BME280;57106;51.446;-2.606;2023-05-07T08:33:45;101708.03;;;16.50;61.40
69351;BME280;57106;51.446;-2.606;2023-05-07T08:36:10;101709.17;;;16.45;60.98
69351;BME280;57106;51.446;-2.606;2023-05-07T08:38:36;101715.37;;;16.44;61.28
69351;BME280;57106;51.446;-2.606;2023-05-07T08:41:01;101720.46;;;16.48;60.54
69351;BME280;57106;51.446;-2.606;2023-05-07T08:43:27;101726.66;;;16.54;60.94
69351;BME280;57106;51.446;-2.606;2023-05-07T08:45:53;101727.04;;;16.71;60.95
69351;BME280;57106;51.446;-2.606;2023-05-07T08:48:17;101725.80;;;16.93;59.76
69351;BME280;57106;51.446;-2.606;2023-05-07T08:50:43;101730.61;;;16.96;59.55
69351;BME280;57106;51.446;-2.606;2023-05-07T08:53:09;101732.91;;;16.93;59.86
69351;BME280;57106;51.446;-2.606;2023-05-07T08:55:34;101734.23;;;16.79;60.05
69351;BME280;57106;51.446;-2.606;2023-05-07T08:58:04;101729.97;;;16.39;60.72
69351;BME280;57106;51.446;-2.606;2023-05-07T09:00:26;101731.35;;;16.40;61.09
69351;BME280;57106;51.446;-2.606;2023-05-07T09:02:50;101731.30;;;16.57;60.76
69351;BME280;57106;51.446;-2.606;2023-05-07T09:05:15;101732.59;;;16.76;60.64
69351;BME280;57106;51.446;-2.606;2023-05-07T09:07:41;101735.82;;;17.02;59.79
69351;BME280;57106;51.446;-2.606;2023-05-07T09:10:08;101737.14;;;17.07;59.26
69351;BME280;57106;51.446;-2.606;2023-05-07T09:12:32;101738.83;;;17.08;59.10
69351;BME280;57106;51.446;-2.606;2023-05-07T09:14:57;101741.10;;;17.14;59.01
69351;BME280;57106;51.446;-2.606;2023-05-07T09:17:22;101748.77;;;16.88;59.43
69351;BME280;57106;51.446;-2.606;2023-05-07T09:19:48;101747.87;;;16.63;60.42
69351;BME280;57106;51.446;-2.606;2023-05-07T09:22:14;101752.12;;;16.94;59.92
69351;BME280;57106;51.446;-2.606;2023-05-07T09:24:39;101749.57;;;17.23;60.23
69351;BME280;57106;51.446;-2.606;2023-05-07T09:27:04;101750.31;;;17.14;59.30
69351;BME280;57106;51.446;-2.606;2023-05-07T09:29:29;101746.64;;;16.81;60.15
69351;BME280;57106;51.446;-2.606;2023-05-07T09:31:55;101742.42;;;17.32;59.71
69351;BME280;57106;51.446;-2.606;2023-05-07T09:34:20;101746.40;;;17.26;59.08
69351;BME280;57106;51.446;-2.606;2023-05-07T09:36:48;101750.88;;;17.54;58.95
69351;BME280;57106;51.446;-2.606;2023-05-07T09:39:12;101752.92;;;17.15;58.96
69351;BME280;57106;51.446;-2.606;2023-05-07T09:44:02;101754.98;;;17.38;59.09
69351;BME280;57106;51.446;-2.606;2023-05-07T10:20:25;101774.62;;;17.90;57.62
69351;BME280;57106;51.446;-2.606;2023-05-07T10:22:50;101781.36;;;18.13;57.68
69351;BME280;57106;51.446;-2.606;2023-05-07T10:25:17;101785.85;;;17.92;57.33
69351;BME280;57106;51.446;-2.606;2023-05-07T10:27:40;101783.70;;;17.66;57.72
69351;BME280;57106;51.446;-2.606;2023-05-07T10:30:12;101782.07;;;17.62;57.41
69351;BME280;57106;51.446;-2.606;2023-05-07T10:32:38;101779.60;;;17.93;56.63
69351;BME280;57106;51.446;-2.606;2023-05-07T10:34:58;101779.81;;;17.92;57.46
69351;BME280;57106;51.446;-2.606;2023-05-07T10:37:22;101787.75;;;17.87;58.08
69351;BME280;57106;51.446;-2.606;2023-05-07T10:39:47;101787.66;;;17.66;58.05
69351;BME280;57106;51.446;-2.606;2023-05-07T10:42:14;101790.35;;;17.73;58.01
69351;BME280;57106;51.446;-2.606;2023-05-07T10:44:38;101791.80;;;17.61;58.87
69351;BME280;57106;51.446;-2.606;2023-05-07T10:47:09;101798.61;;;17.80;58.80
69351;BME280;57106;51.446;-2.606;2023-05-07T10:49:28;101799.40;;;17.70;58.67
69351;BME280;57106;51.446;-2.606;2023-05-07T10:52:12;101800.38;;;17.25;59.36
69351;BME280;57106;51.446;-2.606;2023-05-07T10:54:21;101798.42;;;16.99;59.78
69351;BME280;57106;51.446;-2.606;2023-05-07T10:56:45;101791.34;;;16.89;60.13
69351;BME280;57106;51.446;-2.606;2023-05-07T11:01:50;101792.99;;;17.44;59.29
69351;BME280;57106;51.446;-2.606;2023-05-07T11:04:13;101796.43;;;17.50;58.64
69351;BME280;57106;51.446;-2.606;2023-05-07T11:06:26;101790.55;;;17.39;58.96
69351;BME280;57106;51.446;-2.606;2023-05-07T11:08:53;101793.65;;;17.34;59.06
69351;BME280;57106;51.446;-2.606;2023-05-07T11:11:17;101796.86;;;17.35;58.64
69351;BME280;57106;51.446;-2.606;2023-05-07T11:13:44;101805.50;;;17.69;59.50
69351;BME280;57106;51.446;-2.606;2023-05-07T11:16:16;101801.80;;;17.53;59.12
69351;BME280;57106;51.446;-2.606;2023-05-07T11:20:59;101806.65;;;17.89;57.98
69351;BME280;57106;51.446;-2.606;2023-05-07T11:25:49;101809.44;;;17.62;59.07
69351;BME280;57106;51.446;-2.606;2023-05-07T11:28:15;101809.72;;;17.53;58.85
69351;BME280;57106;51.446;-2.606;2023-05-07T11:30:42;101810.32;;;17.68;59.10
69351;BME280;57106;51.446;-2.606;2023-05-07T11:33:06;101811.51;;;18.04;58.43
69351;BME280;57106;51.446;-2.606;2023-05-07T11:35:31;101810.72;;;18.15;57.85
69351;BME280;57106;51.446;-2.606;2023-05-07T11:37:58;101812.05;;;18.13;58.50
69351;BME280;57106;51.446;-2.606;2023-05-07T11:40:22;101810.07;;;18.16;57.66
69351;BME280;57106;51.446;-2.606;2023-05-07T11:42:47;101809.66;;;17.87;58.50
69351;BME280;57106;51.446;-2.606;2023-05-07T11:45:22;101811.20;;;18.26;57.86
69351;BME280;57106;51.446;-2.606;2023-05-07T11:47:38;101806.77;;;18.32;57.93
69351;BME280;57106;51.446;-2.606;2023-05-07T11:50:06;101807.78;;;18.41;57.35
69351;BME280;57106;51.446;-2.606;2023-05-07T11:52:29;101810.47;;;18.58;56.41
69351;BME280;57106;51.446;-2.606;2023-05-07T11:54:55;101811.18;;;18.75;56.14
69351;BME280;57106;51.446;-2.606;2023-05-07T11:57:20;101818.39;;;18.72;56.99
69351;BME280;57106;51.446;-2.606;2023-05-07T11:59:45;101820.75;;;18.97;55.60
69351;BME280;57106;51.446;-2.606;2023-05-07T12:02:10;101821.71;;;19.05;55.82
69351;BME280;57106;51.446;-2.606;2023-05-07T12:04:35;101822.26;;;19.14;55.34
69351;BME280;57106;51.446;-2.606;2023-05-07T12:07:01;101824.79;;;19.03;55.88
69351;BME280;57106;51.446;-2.606;2023-05-07T12:09:26;101826.92;;;18.93;55.68
69351;BME280;57106;51.446;-2.606;2023-05-07T12:11:52;101829.26;;;19.20;55.54
69351;BME280;57106;51.446;-2.606;2023-05-07T12:14:18;101831.56;;;19.42;54.21
69351;BME280;57106;51.446;-2.606;2023-05-07T12:16:43;101825.61;;;19.18;54.78
69351;BME280;57106;51.446;-2.606;2023-05-07T12:19:08;101827.46;;;19.06;55.46
69351;BME280;57106;51.446;-2.606;2023-05-07T12:21:34;101828.29;;;19.32;55.08
69351;BME280;57106;51.446;-2.606;2023-05-07T12:23:59;101834.30;;;19.26;54.86
69351;BME280;57106;51.446;-2.606;2023-05-07T12:26:24;101833.15;;;19.19;54.44
69351;BME280;57106;51.446;-2.606;2023-05-07T12:28:49;101836.44;;;19.04;54.51
69351;BME280;57106;51.446;-2.606;2023-05-07T12:31:15;101834.53;;;19.23;53.59
69351;BME280;57106;51.446;-2.606;2023-05-07T12:36:07;101835.69;;;19.54;53.31
69351;BME280;57106;51.446;-2.606;2023-05-07T12:38:35;101835.07;;;19.45;53.53
69351;BME280;57106;51.446;-2.606;2023-05-07T12:40:56;101837.02;;;19.47;52.87
69351;BME280;57106;51.446;-2.606;2023-05-07T12:43:25;101838.69;;;19.20;52.89
69351;BME280;57106;51.446;-2.606;2023-05-07T12:45:49;101842.29;;;19.03;53.44
69351;BME280;57106;51.446;-2.606;2023-05-07T12:48:12;101841.32;;;18.67;54.92
69351;BME280;57106;51.446;-2.606;2023-05-07T12:50:38;101837.69;;;18.66;54.95
69351;BME280;57106;51.446;-2.606;2023-05-07T12:53:04;101845.62;;;19.00;54.87
69351;BME280;57106;51.446;-2.606;2023-05-07T12:55:29;101845.02;;;19.36;53.73
69351;BME280;57106;51.446;-2.606;2023-05-07T12:57:53;101850.44;;;19.10;54.54
69351;BME280;57106;51.446;-2.606;2023-05-07T13:00:33;101848.12;;;19.05;54.65
69351;BME280;57106;51.446;-2.606;2023-05-07T13:02:45;101847.92;;;19.22;54.20
69351;BME280;57106;51.446;-2.606;2023-05-07T13:05:10;101847.69;;;19.31;53.96
69351;BME280;57106;51.446;-2.606;2023-05-07T13:07:35;101844.34;;;19.44;54.04
69351;BME280;57106;51.446;-2.606;2023-05-07T13:10:00;101847.58;;;19.31;54.60
69351;BME280;57106;51.446;-2.606;2023-05-07T13:12:26;101847.38;;;19.05;54.79
69351;BME280;57106;51.446;-2.606;2023-05-07T13:14:51;101845.68;;;19.16;54.27
69351;BME280;57106;51.446;-2.606;2023-05-07T13:17:16;101844.56;;;19.30;53.40
69351;BME280;57106;51.446;-2.606;2023-05-07T13:19:42;101847.75;;;19.51;53.68
69351;BME280;57106;51.446;-2.606;2023-05-07T13:22:07;101853.36;;;19.78;52.94
69351;BME280;57106;51.446;-2.606;2023-05-07T13:24:32;101859.97;;;19.64;52.97
69351;BME280;57106;51.446;-2.606;2023-05-07T13:26:58;101855.65;;;19.32;52.74
69351;BME280;57106;51.446;-2.606;2023-05-07T13:29:23;101856.10;;;19.11;53.00
69351;BME280;57106;51.446;-2.606;2023-05-07T13:31:48;101856.49;;;18.91;53.94
69351;BME280;57106;51.446;-2.606;2023-05-07T13:34:14;101856.42;;;18.78;54.30
69351;BME280;57106;51.446;-2.606;2023-05-07T13:36:39;101857.90;;;18.85;54.17
69351;BME280;57106;51.446;-2.606;2023-05-07T13:39:04;101855.96;;;19.05;54.05
69351;BME280;57106;51.446;-2.606;2023-05-07T13:41:30;101861.46;;;19.17;54.28
69351;BME280;57106;51.446;-2.606;2023-05-07T13:43:56;101861.00;;;19.56;52.82
69351;BME280;57106;51.446;-2.606;2023-05-07T13:46:21;101864.70;;;19.73;52.64
69351;BME280;57106;51.446;-2.606;2023-05-07T13:48:45;101865.87;;;20.08;51.68
69351;BME280;57106;51.446;-2.606;2023-05-07T13:53:36;101867.36;;;20.26;50.81
69351;BME280;57106;51.446;-2.606;2023-05-07T13:56:02;101866.24;;;19.94;51.10
69351;BME280;57106;51.446;-2.606;2023-05-07T14:05:43;101852.20;;;19.87;51.53
69351;BME280;57106;51.446;-2.606;2023-05-07T14:10:33;101857.42;;;19.77;52.04
69351;BME280;57106;51.446;-2.606;2023-05-07T14:15:24;101861.66;;;19.14;53.57
69351;BME280;57106;51.446;-2.606;2023-05-07T14:37:12;101864.22;;;19.12;54.57
69351;BME280;57106;51.446;-2.606;2023-05-07T14:44:28;101864.72;;;19.20;54.27
69351;BME280;57106;51.446;-2.606;2023-05-07T16:52:51;101858.95;;;19.98;53.42
69351;BME280;57106;51.446;-2.606;2023-05-07T16:55:16;101859.94;;;20.08;52.88
69351;BME280;57106;51.446;-2.606;2023-05-07T16:57:40;101863.22;;;19.95;53.29
69351;BME280;57106;51.446;-2.606;2023-05-07T17:00:07;101863.46;;;19.77;53.43
69351;BME280;57106;51.446;-2.606;2023-05-07T17:02:31;101863.00;;;19.94;53.39
69351;BME280;57106;51.446;-2.606;2023-05-07T17:04:56;101864.54;;;19.76;53.73
69351;BME280;57106;51.446;-2.606;2023-05-07T17:07:21;101863.99;;;19.67;54.00
69351;BME280;57106;51.446;-2.606;2023-05-07T17:09:47;101864.38;;;19.55;54.22
69351;BME280;57106;51.446;-2.606;2023-05-07T17:12:12;101867.91;;;19.19;55.08
69351;BME280;57106;51.446;-2.606;2023-05-07T17:14:38;101867.95;;;19.27;54.98
69351;BME280;57106;51.446;-2.606;2023-05-07T17:17:03;101868.64;;;19.21;55.08
69351;BME280;57106;51.446;-2.606;2023-05-07T17:19:29;101865.76;;;19.38;55.06
69351;BME280;57106;51.446;-2.606;2023-05-07T17:21:53;101867.39;;;19.23;54.95
69351;BME280;57106;51.446;-2.606;2023-05-07T17:24:19;101863.58;;;19.26;54.68
69351;BME280;57106;51.446;-2.606;2023-05-07T17:26:46;101862.90;;;19.37;54.65
69351;BME280;57106;51.446;-2.606;2023-05-07T17:29:10;101863.26;;;19.41;54.65
69351;BME280;57106;51.446;-2.606;2023-05-07T17:31:35;101865.62;;;19.32;54.46
69351;BME280;57106;51.446;-2.606;2023-05-07T17:34:00;101861.53;;;19.42;54.94
69351;BME280;57106;51.446;-2.606;2023-05-07T17:36:26;101859.92;;;19.21;54.93
69351;BME280;57106;51.446;-2.606;2023-05-07T17:38:51;101859.32;;;19.12;54.77
69351;BME280;57106;51.446;-2.606;2023-05-07T17:41:16;101861.84;;;19.14;54.79
69351;BME280;57106;51.446;-2.606;2023-05-07T17:43:42;101865.68;;;19.19;54.76
69351;BME280;57106;51.446;-2.606;2023-05-07T17:46:07;101864.03;;;19.10;55.42
69351;BME280;57106;51.446;-2.606;2023-05-07T17:48:32;101862.36;;;19.19;55.13
69351;BME280;57106;51.446;-2.606;2023-05-07T17:51:01;101859.71;;;18.99;55.23
69351;BME280;57106;51.446;-2.606;2023-05-07T17:53:23;101862.47;;;19.29;54.71
69351;BME280;57106;51.446;-2.606;2023-05-07T17:55:48;101867.84;;;19.09;55.06
69351;BME280;57106;51.446;-2.606;2023-05-07T17:58:14;101867.57;;;19.18;54.49
69351;BME280;57106;51.446;-2.606;2023-05-07T18:00:39;101871.40;;;19.04;54.57
69351;BME280;57106;51.446;-2.606;2023-05-07T18:03:04;101869.79;;;18.95;54.87
69351;BME280;57106;51.446;-2.606;2023-05-07T18:05:30;101870.94;;;19.07;55.14
69351;BME280;57106;51.446;-2.606;2023-05-07T18:07:55;101871.55;;;19.02;54.72
69351;BME280;57106;51.446;-2.606;2023-05-07T18:10:21;101872.09;;;19.28;53.38
69351;BME280;57106;51.446;-2.606;2023-05-07T18:12:46;101872.65;;;19.28;53.91
69351;BME280;57106;51.446;-2.606;2023-05-07T18:15:12;101879.66;;;19.10;54.52
69351;BME280;57106;51.446;-2.606;2023-05-07T18:17:38;101880.40;;;19.10;54.89
69351;BME280;57106;51.446;-2.606;2023-05-07T18:20:02;101882.38;;;18.94;55.36
69351;BME280;57106;51.446;-2.606;2023-05-07T18:22:27;101885.32;;;18.95;54.89
69351;BME280;57106;51.446;-2.606;2023-05-07T18:24:53;101888.82;;;18.88;54.97
69351;BME280;57106;51.446;-2.606;2023-05-07T18:27:18;101884.07;;;18.71;55.31
69351;BME280;57106;51.446;-2.606;2023-05-07T18:29:43;101888.86;;;18.75;55.29
69351;BME280;57106;51.446;-2.606;2023-05-07T18:32:09;101887.11;;;18.65;55.48
69351;BME280;57106;51.446;-2.606;2023-05-07T18:34:34;101885.78;;;18.44;56.27
69351;BME280;57106;51.446;-2.606;2023-05-07T18:36:59;101890.05;;;18.27;56.40
69351;BME280;57106;51.446;-2.606;2023-05-07T18:39:27;101896.40;;;18.36;56.31
69351;BME280;57106;51.446;-2.606;2023-05-07T18:41:51;101899.05;;;18.21;56.72
69351;BME280;57106;51.446;-2.606;2023-05-07T18:44:16;101897.22;;;18.43;55.83
69351;BME280;57106;51.446;-2.606;2023-05-07T18:46:41;101892.29;;;18.31;55.69
69351;BME280;57106;51.446;-2.606;2023-05-07T18:49:06;101889.16;;;18.19;55.75
69351;BME280;57106;51.446;-2.606;2023-05-07T18:51:32;101892.09;;;17.99;56.43
69351;BME280;57106;51.446;-2.606;2023-05-07T18:53:57;101894.25;;;18.00;56.19
69351;BME280;57106;51.446;-2.606;2023-05-07T18:56:23;101897.67;;;17.96;56.31
69351;BME280;57106;51.446;-2.606;2023-05-07T18:58:48;101900.60;;;17.97;56.23
69351;BME280;57106;51.446;-2.606;2023-05-07T19:01:14;101908.28;;;17.92;56.68
69351;BME280;57106;51.446;-2.606;2023-05-07T19:03:40;101912.94;;;17.88;56.74
69351;BME280;57106;51.446;-2.606;2023-05-07T19:06:05;101916.46;;;17.94;57.12
69351;BME280;57106;51.446;-2.606;2023-05-07T19:08:31;101916.84;;;17.82;57.29
69351;BME280;57106;51.446;-2.606;2023-05-07T19:10:56;101917.61;;;17.99;56.45
69351;BME280;57106;51.446;-2.606;2023-05-07T19:13:21;101923.29;;;17.87;56.73
69351;BME280;57106;51.446;-2.606;2023-05-07T19:15:47;101931.50;;;18.00;56.42
69351;BME280;57106;51.446;-2.606;2023-05-07T19:18:12;101933.85;;;17.77;56.97